Weather at Busselton Margaret River Regional Airport

Public forecast

Using degrees Celsius for public forecast. Weather courtesy of forecast.io.

Closest aviation weather report (METAR) to Busselton Margaret River Regional Airport

Closest report is Perth Jandakot Airport, 98.5 nm (182.5 km) NNE. Retrieved 2022/08/13 19:00 UTC (3 minutes ago):

YPJT 131900Z AUTO 00000KT 9999 // SCT040 OVC048 08/07 Q1015

Aviation forecast (TAF) for Busselton Margaret River Regional Airport

Retrieved 2022/08/13 18:00 UTC (1 hour ago):

TAF YBLN 131704Z 1318/1418 VRB05KT 9999 SCT050 FM140200 36010KT 9999 BKN050 FM141000 06006KT 9999 BKN045